sensor_id;sensor_type;location;lat;lon;timestamp;temperature;humidity
8095;DHT22;4090;49.270;8.696;2023-09-19T00:00:10;19.90;99.90
8095;DHT22;4090;49.270;8.696;2023-09-19T00:02:54;19.90;99.90
8095;DHT22;4090;49.270;8.696;2023-09-19T00:05:39;19.90;99.90
8095;DHT22;4090;49.270;8.696;2023-09-19T00:08:25;20.00;99.90
8095;DHT22;4090;49.270;8.696;2023-09-19T00:11:08;19.90;99.90
8095;DHT22;4090;49.270;8.696;2023-09-19T00:13:51;20.10;99.90
8095;DHT22;4090;49.270;8.696;2023-09-19T00:16:35;19.90;99.90
8095;DHT22;4090;49.270;8.696;2023-09-19T00:19:17;19.90;99.90
8095;DHT22;4090;49.270;8.696;2023-09-19T00:21:59;19.90;99.90
8095;DHT22;4090;49.270;8.696;2023-09-19T00:24:41;19.80;99.90
8095;DHT22;4090;49.270;8.696;2023-09-19T00:27:23;19.90;99.90
8095;DHT22;4090;49.270;8.696;2023-09-19T00:30:07;19.90;99.90
8095;DHT22;4090;49.270;8.696;2023-09-19T00:32:56;19.90;99.90
8095;DHT22;4090;49.270;8.696;2023-09-19T00:35:38;19.90;99.90
8095;DHT22;4090;49.270;8.696;2023-09-19T00:38:21;19.90;99.90
8095;DHT22;4090;49.270;8.696;2023-09-19T00:41:05;19.90;99.90
8095;DHT22;4090;49.270;8.696;2023-09-19T00:43:47;19.80;99.90
8095;DHT22;4090;49.270;8.696;2023-09-19T00:46:31;19.80;99.90
8095;DHT22;4090;49.270;8.696;2023-09-19T00:49:15;19.80;99.90
8095;DHT22;4090;49.270;8.696;2023-09-19T00:51:57;19.90;99.90
8095;DHT22;4090;49.270;8.696;2023-09-19T00:54:40;19.80;99.90
8095;DHT22;4090;49.270;8.696;2023-09-19T00:57:22;19.70;99.90
8095;DHT22;4090;49.270;8.696;2023-09-19T01:00:07;19.80;99.90
8095;DHT22;4090;49.270;8.696;2023-09-19T01:02:56;19.70;99.90
8095;DHT22;4090;49.270;8.696;2023-09-19T01:05:39;19.70;99.90
8095;DHT22;4090;49.270;8.696;2023-09-19T01:08:21;19.70;99.90
8095;DHT22;4090;49.270;8.696;2023-09-19T01:11:09;19.60;99.90
8095;DHT22;4090;49.270;8.696;2023-09-19T01:13:58;19.60;99.90
8095;DHT22;4090;49.270;8.696;2023-09-19T01:16:48;19.50;99.90
8095;DHT22;4090;49.270;8.696;2023-09-19T01:20:08;19.60;99.90
8095;DHT22;4090;49.270;8.696;2023-09-19T01:23:07;19.60;99.90
8095;DHT22;4090;49.270;8.696;2023-09-19T01:29:17;19.70;99.90
8095;DHT22;4090;49.270;8.696;2023-09-19T01:32:04;19.60;99.90
8095;DHT22;4090;49.270;8.696;2023-09-19T01:34:47;19.60;99.90
8095;DHT22;4090;49.270;8.696;2023-09-19T01:37:30;19.60;99.90
8095;DHT22;4090;49.270;8.696;2023-09-19T01:40:15;19.70;99.90
8095;DHT22;4090;49.270;8.696;2023-09-19T01:43:09;19.50;99.90
8095;DHT22;4090;49.270;8.696;2023-09-19T01:46:02;19.70;99.90
8095;DHT22;4090;49.270;8.696;2023-09-19T01:48:58;19.50;99.90
8095;DHT22;4090;49.270;8.696;2023-09-19T01:51:53;19.60;99.90
8095;DHT22;4090;49.270;8.696;2023-09-19T01:54:41;19.50;99.90
8095;DHT22;4090;49.270;8.696;2023-09-19T01:57:29;19.40;99.90
8095;DHT22;4090;49.270;8.696;2023-09-19T02:00:14;19.30;99.90
8095;DHT22;4090;49.270;8.696;2023-09-19T02:02:59;19.40;99.90
8095;DHT22;4090;49.270;8.696;2023-09-19T02:05:48;19.50;99.90
8095;DHT22;4090;49.270;8.696;2023-09-19T02:08:31;19.40;99.90
8095;DHT22;4090;49.270;8.696;2023-09-19T02:11:14;19.40;99.90
8095;DHT22;4090;49.270;8.696;2023-09-19T02:13:56;19.30;99.90
8095;DHT22;4090;49.270;8.696;2023-09-19T02:16:38;19.30;99.90
8095;DHT22;4090;49.270;8.696;2023-09-19T02:19:20;19.40;99.90
8095;DHT22;4090;49.270;8.696;2023-09-19T02:22:03;19.40;99.90
8095;DHT22;4090;49.270;8.696;2023-09-19T02:24:48;19.50;99.90
8095;DHT22;4090;49.270;8.696;2023-09-19T02:27:29;19.20;99.90
8095;DHT22;4090;49.270;8.696;2023-09-19T02:30:13;19.20;99.90
8095;DHT22;4090;49.270;8.696;2023-09-19T02:32:56;19.20;99.90
8095;DHT22;4090;49.270;8.696;2023-09-19T02:35:38;19.50;99.90
8095;DHT22;4090;49.270;8.696;2023-09-19T02:38:21;19.40;99.90
8095;DHT22;4090;49.270;8.696;2023-09-19T02:41:05;19.20;99.90
8095;DHT22;4090;49.270;8.696;2023-09-19T02:43:47;19.20;99.90
8095;DHT22;4090;49.270;8.696;2023-09-19T02:46:29;19.10;99.90
8095;DHT22;4090;49.270;8.696;2023-09-19T02:49:11;19.10;99.90
8095;DHT22;4090;49.270;8.696;2023-09-19T02:51:54;19.10;99.90
8095;DHT22;4090;49.270;8.696;2023-09-19T02:54:37;19.10;99.90
8095;DHT22;4090;49.270;8.696;2023-09-19T02:57:19;19.20;99.90
8095;DHT22;4090;49.270;8.696;2023-09-19T03:00:02;19.00;99.90
8095;DHT22;4090;49.270;8.696;2023-09-19T03:02:45;19.00;99.90
8095;DHT22;4090;49.270;8.696;2023-09-19T03:05:28;19.40;99.90
8095;DHT22;4090;49.270;8.696;2023-09-19T03:08:11;19.00;99.90
8095;DHT22;4090;49.270;8.696;2023-09-19T03:10:56;19.00;99.90
8095;DHT22;4090;49.270;8.696;2023-09-19T03:13:38;19.00;99.90
8095;DHT22;4090;49.270;8.696;2023-09-19T03:16:21;19.30;99.90
8095;DHT22;4090;49.270;8.696;2023-09-19T03:19:05;19.30;99.90
8095;DHT22;4090;49.270;8.696;2023-09-19T03:21:48;19.00;99.90
8095;DHT22;4090;49.270;8.696;2023-09-19T03:24:31;19.40;99.90
8095;DHT22;4090;49.270;8.696;2023-09-19T03:27:16;19.00;99.90
8095;DHT22;4090;49.270;8.696;2023-09-19T03:29:58;19.40;99.90
8095;DHT22;4090;49.270;8.696;2023-09-19T03:32:44;19.10;99.90
8095;DHT22;4090;49.270;8.696;2023-09-19T03:35:26;19.30;99.90
8095;DHT22;4090;49.270;8.696;2023-09-19T03:38:08;19.30;99.90
8095;DHT22;4090;49.270;8.696;2023-09-19T03:40:50;19.20;99.90
8095;DHT22;4090;49.270;8.696;2023-09-19T03:43:33;19.20;99.90
8095;DHT22;4090;49.270;8.696;2023-09-19T03:46:15;19.20;99.90
8095;DHT22;4090;49.270;8.696;2023-09-19T03:48:58;19.10;99.90
8095;DHT22;4090;49.270;8.696;2023-09-19T03:51:40;19.20;99.90
8095;DHT22;4090;49.270;8.696;2023-09-19T03:54:22;19.30;99.90
8095;DHT22;4090;49.270;8.696;2023-09-19T03:57:04;19.10;99.90
8095;DHT22;4090;49.270;8.696;2023-09-19T03:59:47;19.40;99.90
8095;DHT22;4090;49.270;8.696;2023-09-19T04:02:29;19.20;99.90
8095;DHT22;4090;49.270;8.696;2023-09-19T04:05:13;19.40;99.90
8095;DHT22;4090;49.270;8.696;2023-09-19T04:07:55;19.30;99.90
8095;DHT22;4090;49.270;8.696;2023-09-19T04:10:37;19.30;99.90
8095;DHT22;4090;49.270;8.696;2023-09-19T04:13:19;19.40;99.90
8095;DHT22;4090;49.270;8.696;2023-09-19T04:16:02;19.40;99.90
8095;DHT22;4090;49.270;8.696;2023-09-19T04:18:45;19.40;99.90
8095;DHT22;4090;49.270;8.696;2023-09-19T04:21:27;19.30;99.90
8095;DHT22;4090;49.270;8.696;2023-09-19T04:24:10;19.20;99.90
8095;DHT22;4090;49.270;8.696;2023-09-19T04:26:52;19.30;99.90
8095;DHT22;4090;49.270;8.696;2023-09-19T04:29:34;19.30;99.90
8095;DHT22;4090;49.270;8.696;2023-09-19T04:32:17;19.30;99.90
8095;DHT22;4090;49.270;8.696;2023-09-19T04:34:59;19.30;99.90
8095;DHT22;4090;49.270;8.696;2023-09-19T04:37:44;19.30;99.90
8095;DHT22;4090;49.270;8.696;2023-09-19T04:40:25;19.20;99.90
8095;DHT22;4090;49.270;8.696;2023-09-19T04:43:08;19.30;99.90
8095;DHT22;4090;49.270;8.696;2023-09-19T04:45:50;19.30;99.90
8095;DHT22;4090;49.270;8.696;2023-09-19T04:48:36;19.30;99.90
8095;DHT22;4090;49.270;8.696;2023-09-19T04:51:18;19.30;99.90
8095;DHT22;4090;49.270;8.696;2023-09-19T04:54:01;19.20;99.90
8095;DHT22;4090;49.270;8.696;2023-09-19T04:56:43;19.20;99.90
8095;DHT22;4090;49.270;8.696;2023-09-19T04:59:25;19.20;99.90
8095;DHT22;4090;49.270;8.696;2023-09-19T05:02:06;19.20;99.90
8095;DHT22;4090;49.270;8.696;2023-09-19T05:04:50;19.20;99.90
8095;DHT22;4090;49.270;8.696;2023-09-19T05:07:33;19.20;99.90
8095;DHT22;4090;49.270;8.696;2023-09-19T05:10:15;19.30;99.90
8095;DHT22;4090;49.270;8.696;2023-09-19T05:12:59;19.20;99.90
8095;DHT22;4090;49.270;8.696;2023-09-19T05:15:41;19.20;99.90
8095;DHT22;4090;49.270;8.696;2023-09-19T05:18:23;19.10;99.90
8095;DHT22;4090;49.270;8.696;2023-09-19T05:21:07;19.10;99.90
8095;DHT22;4090;49.270;8.696;2023-09-19T05:23:51;19.10;99.90
8095;DHT22;4090;49.270;8.696;2023-09-19T05:26:33;19.10;99.90
8095;DHT22;4090;49.270;8.696;2023-09-19T05:29:15;19.20;99.90
8095;DHT22;4090;49.270;8.696;2023-09-19T05:31:57;19.10;99.90
8095;DHT22;4090;49.270;8.696;2023-09-19T05:34:39;19.10;99.90
8095;DHT22;4090;49.270;8.696;2023-09-19T05:37:22;19.10;99.90
8095;DHT22;4090;49.270;8.696;2023-09-19T05:40:07;19.10;99.90
8095;DHT22;4090;49.270;8.696;2023-09-19T05:42:52;19.00;99.90
8095;DHT22;4090;49.270;8.696;2023-09-19T05:45:34;19.00;99.90
8095;DHT22;4090;49.270;8.696;2023-09-19T05:48:17;19.00;99.90
8095;DHT22;4090;49.270;8.696;2023-09-19T05:50:59;19.00;99.90
8095;DHT22;4090;49.270;8.696;2023-09-19T05:53:43;19.10;99.90
8095;DHT22;4090;49.270;8.696;2023-09-19T05:56:25;19.00;99.90
8095;DHT22;4090;49.270;8.696;2023-09-19T05:59:07;18.90;99.90
8095;DHT22;4090;49.270;8.696;2023-09-19T06:01:49;19.10;99.90
8095;DHT22;4090;49.270;8.696;2023-09-19T06:04:32;19.00;99.90
8095;DHT22;4090;49.270;8.696;2023-09-19T06:07:14;19.00;99.90
8095;DHT22;4090;49.270;8.696;2023-09-19T06:09:58;18.90;99.90
8095;DHT22;4090;49.270;8.696;2023-09-19T06:12:40;18.90;99.90
8095;DHT22;4090;49.270;8.696;2023-09-19T06:15:25;19.00;99.90
8095;DHT22;4090;49.270;8.696;2023-09-19T06:18:10;18.90;99.90
8095;DHT22;4090;49.270;8.696;2023-09-19T06:20:55;18.90;99.90
8095;DHT22;4090;49.270;8.696;2023-09-19T06:23:39;18.90;99.90
8095;DHT22;4090;49.270;8.696;2023-09-19T06:26:23;18.90;99.90
8095;DHT22;4090;49.270;8.696;2023-09-19T06:29:07;18.90;99.90
8095;DHT22;4090;49.270;8.696;2023-09-19T06:31:49;18.90;99.90
8095;DHT22;4090;49.270;8.696;2023-09-19T06:34:31;18.80;99.90
8095;DHT22;4090;49.270;8.696;2023-09-19T06:37:13;18.80;99.90
8095;DHT22;4090;49.270;8.696;2023-09-19T06:39:55;18.90;99.90
8095;DHT22;4090;49.270;8.696;2023-09-19T06:42:39;18.80;99.90
8095;DHT22;4090;49.270;8.696;2023-09-19T06:45:21;18.80;99.90
8095;DHT22;4090;49.270;8.696;2023-09-19T06:48:04;18.80;99.90
8095;DHT22;4090;49.270;8.696;2023-09-19T06:50:46;18.80;99.90
8095;DHT22;4090;49.270;8.696;2023-09-19T06:53:28;18.90;99.90
8095;DHT22;4090;49.270;8.696;2023-09-19T06:56:12;18.80;99.90
8095;DHT22;4090;49.270;8.696;2023-09-19T06:58:55;18.80;99.90
8095;DHT22;4090;49.270;8.696;2023-09-19T07:01:37;18.80;99.90
8095;DHT22;4090;49.270;8.696;2023-09-19T07:04:20;18.80;99.90
8095;DHT22;4090;49.270;8.696;2023-09-19T07:07:02;19.00;99.90
8095;DHT22;4090;49.270;8.696;2023-09-19T07:09:45;18.80;99.90
8095;DHT22;4090;49.270;8.696;2023-09-19T07:12:29;18.70;99.90
8095;DHT22;4090;49.270;8.696;2023-09-19T07:15:12;18.70;99.90
8095;DHT22;4090;49.270;8.696;2023-09-19T07:17:55;18.90;99.90
8095;DHT22;4090;49.270;8.696;2023-09-19T07:20:36;18.80;99.90
8095;DHT22;4090;49.270;8.696;2023-09-19T07:23:19;18.80;99.90
8095;DHT22;4090;49.270;8.696;2023-09-19T07:26:03;18.80;99.90
8095;DHT22;4090;49.270;8.696;2023-09-19T07:28:45;18.80;99.90
8095;DHT22;4090;49.270;8.696;2023-09-19T07:31:29;18.80;99.90
8095;DHT22;4090;49.270;8.696;2023-09-19T07:34:11;18.80;99.90
8095;DHT22;4090;49.270;8.696;2023-09-19T07:36:54;18.70;99.90
8095;DHT22;4090;49.270;8.696;2023-09-19T07:39:37;18.70;99.90
8095;DHT22;4090;49.270;8.696;2023-09-19T07:42:21;18.70;99.90
8095;DHT22;4090;49.270;8.696;2023-09-19T07:45:04;18.80;99.90
8095;DHT22;4090;49.270;8.696;2023-09-19T07:47:48;18.80;99.90
8095;DHT22;4090;49.270;8.696;2023-09-19T07:50:30;18.70;99.90
8095;DHT22;4090;49.270;8.696;2023-09-19T07:53:12;18.80;99.90
8095;DHT22;4090;49.270;8.696;2023-09-19T07:56:02;18.80;99.90
8095;DHT22;4090;49.270;8.696;2023-09-19T07:58:44;18.80;99.90
8095;DHT22;4090;49.270;8.696;2023-09-19T08:01:26;18.80;99.90
8095;DHT22;4090;49.270;8.696;2023-09-19T08:04:09;18.70;99.90
8095;DHT22;4090;49.270;8.696;2023-09-19T08:06:51;18.70;99.90
8095;DHT22;4090;49.270;8.696;2023-09-19T08:09:33;18.80;99.90
8095;DHT22;4090;49.270;8.696;2023-09-19T08:12:15;18.90;99.90
8095;DHT22;4090;49.270;8.696;2023-09-19T08:14:58;18.70;99.90
8095;DHT22;4090;49.270;8.696;2023-09-19T08:17:40;18.80;99.90
8095;DHT22;4090;49.270;8.696;2023-09-19T08:20:23;18.80;99.90
8095;DHT22;4090;49.270;8.696;2023-09-19T08:23:05;18.90;99.90
8095;DHT22;4090;49.270;8.696;2023-09-19T08:25:48;18.90;99.90
8095;DHT22;4090;49.270;8.696;2023-09-19T08:28:31;18.90;99.90
8095;DHT22;4090;49.270;8.696;2023-09-19T08:31:12;18.90;99.90
8095;DHT22;4090;49.270;8.696;2023-09-19T08:33:54;18.90;99.90
8095;DHT22;4090;49.270;8.696;2023-09-19T08:36:37;18.90;99.90
8095;DHT22;4090;49.270;8.696;2023-09-19T08:39:22;18.90;99.90
8095;DHT22;4090;49.270;8.696;2023-09-19T08:42:04;18.90;99.90
8095;DHT22;4090;49.270;8.696;2023-09-19T08:44:46;19.00;99.90
8095;DHT22;4090;49.270;8.696;2023-09-19T08:47:33;19.00;99.90
8095;DHT22;4090;49.270;8.696;2023-09-19T08:50:22;19.00;99.90
8095;DHT22;4090;49.270;8.696;2023-09-19T08:53:10;19.00;99.90
8095;DHT22;4090;49.270;8.696;2023-09-19T08:55:52;19.00;99.90
8095;DHT22;4090;49.270;8.696;2023-09-19T08:58:43;19.00;99.90
8095;DHT22;4090;49.270;8.696;2023-09-19T09:01:28;19.00;99.90
8095;DHT22;4090;49.270;8.696;2023-09-19T09:04:11;19.10;99.90
8095;DHT22;4090;49.270;8.696;2023-09-19T09:06:54;19.10;99.90
8095;DHT22;4090;49.270;8.696;2023-09-19T09:09:38;19.10;99.90
8095;DHT22;4090;49.270;8.696;2023-09-19T09:12:23;19.10;99.90
8095;DHT22;4090;49.270;8.696;2023-09-19T09:15:06;19.10;99.90
8095;DHT22;4090;49.270;8.696;2023-09-19T09:17:49;19.20;99.90
8095;DHT22;4090;49.270;8.696;2023-09-19T09:20:33;19.10;99.90
8095;DHT22;4090;49.270;8.696;2023-09-19T09:23:17;19.10;99.90
8095;DHT22;4090;49.270;8.696;2023-09-19T09:26:01;19.10;99.90
8095;DHT22;4090;49.270;8.696;2023-09-19T09:28:46;19.00;99.90
8095;DHT22;4090;49.270;8.696;2023-09-19T09:31:29;19.20;99.90
8095;DHT22;4090;49.270;8.696;2023-09-19T09:34:11;19.20;99.90
8095;DHT22;4090;49.270;8.696;2023-09-19T09:36:54;19.10;99.90
8095;DHT22;4090;49.270;8.696;2023-09-19T09:39:36;19.20;99.90
8095;DHT22;4090;49.270;8.696;2023-09-19T09:42:30;19.30;99.90
8095;DHT22;4090;49.270;8.696;2023-09-19T09:45:16;19.20;99.90
8095;DHT22;4090;49.270;8.696;2023-09-19T09:47:58;19.20;99.90
8095;DHT22;4090;49.270;8.696;2023-09-19T09:50:47;19.20;99.90
8095;DHT22;4090;49.270;8.696;2023-09-19T09:53:36;19.30;99.90
8095;DHT22;4090;49.270;8.696;2023-09-19T09:56:18;19.30;99.90
8095;DHT22;4090;49.270;8.696;2023-09-19T09:59:01;19.40;99.90
8095;DHT22;4090;49.270;8.696;2023-09-19T10:01:47;19.50;99.90
8095;DHT22;4090;49.270;8.696;2023-09-19T10:04:30;19.40;99.90
8095;DHT22;4090;49.270;8.696;2023-09-19T10:07:27;19.50;99.90
8095;DHT22;4090;49.270;8.696;2023-09-19T10:10:12;19.50;99.90
8095;DHT22;4090;49.270;8.696;2023-09-19T10:12:59;19.50;99.90
8095;DHT22;4090;49.270;8.696;2023-09-19T10:15:48;19.50;99.90
8095;DHT22;4090;49.270;8.696;2023-09-19T10:18:32;19.60;99.90
8095;DHT22;4090;49.270;8.696;2023-09-19T10:21:19;19.80;99.90
8095;DHT22;4090;49.270;8.696;2023-09-19T10:24:03;19.70;99.90
8095;DHT22;4090;49.270;8.696;2023-09-19T10:26:49;19.80;99.90
8095;DHT22;4090;49.270;8.696;2023-09-19T10:29:32;19.80;99.90
8095;DHT22;4090;49.270;8.696;2023-09-19T10:32:19;19.90;99.90
8095;DHT22;4090;49.270;8.696;2023-09-19T10:35:02;20.00;99.90
8095;DHT22;4090;49.270;8.696;2023-09-19T10:37:47;20.00;99.90
8095;DHT22;4090;49.270;8.696;2023-09-19T10:40:33;20.10;99.90
8095;DHT22;4090;49.270;8.696;2023-09-19T10:43:17;20.20;99.90
8095;DHT22;4090;49.270;8.696;2023-09-19T10:46:01;20.20;99.90
8095;DHT22;4090;49.270;8.696;2023-09-19T10:48:46;20.30;99.90
8095;DHT22;4090;49.270;8.696;2023-09-19T10:51:31;20.50;99.90
8095;DHT22;4090;49.270;8.696;2023-09-19T10:54:16;20.40;99.90
8095;DHT22;4090;49.270;8.696;2023-09-19T10:56:58;20.50;99.90
8095;DHT22;4090;49.270;8.696;2023-09-19T11:00:00;20.60;99.90
8095;DHT22;4090;49.270;8.696;2023-09-19T11:03:18;20.70;99.90
8095;DHT22;4090;49.270;8.696;2023-09-19T11:06:09;20.70;99.90
8095;DHT22;4090;49.270;8.696;2023-09-19T11:08:56;20.70;99.90
8095;DHT22;4090;49.270;8.696;2023-09-19T11:11:46;20.80;99.90
8095;DHT22;4090;49.270;8.696;2023-09-19T11:14:38;20.80;99.90
8095;DHT22;4090;49.270;8.696;2023-09-19T11:17:42;21.00;99.90
8095;DHT22;4090;49.270;8.696;2023-09-19T11:20:27;21.00;99.90
8095;DHT22;4090;49.270;8.696;2023-09-19T11:23:24;21.00;99.90
8095;DHT22;4090;49.270;8.696;2023-09-19T11:26:41;21.10;99.90
8095;DHT22;4090;49.270;8.696;2023-09-19T11:29:29;21.20;99.90
8095;DHT22;4090;49.270;8.696;2023-09-19T11:32:11;21.20;99.90
8095;DHT22;4090;49.270;8.696;2023-09-19T11:35:06;21.20;99.90
8095;DHT22;4090;49.270;8.696;2023-09-19T11:38:04;21.20;99.90
8095;DHT22;4090;49.270;8.696;2023-09-19T11:44:35;21.20;99.90
8095;DHT22;4090;49.270;8.696;2023-09-19T11:47:18;21.30;99.90
8095;DHT22;4090;49.270;8.696;2023-09-19T11:50:02;21.30;99.90
8095;DHT22;4090;49.270;8.696;2023-09-19T11:52:44;21.40;99.90
8095;DHT22;4090;49.270;8.696;2023-09-19T11:55:28;21.40;99.90
8095;DHT22;4090;49.270;8.696;2023-09-19T11:58:15;21.40;99.90
8095;DHT22;4090;49.270;8.696;2023-09-19T12:01:00;21.60;99.90
8095;DHT22;4090;49.270;8.696;2023-09-19T12:03:47;21.60;99.90
8095;DHT22;4090;49.270;8.696;2023-09-19T12:06:30;21.80;99.90
8095;DHT22;4090;49.270;8.696;2023-09-19T12:09:13;21.80;99.90
8095;DHT22;4090;49.270;8.696;2023-09-19T12:11:57;21.70;99.90
8095;DHT22;4090;49.270;8.696;2023-09-19T12:14:39;21.80;99.90
8095;DHT22;4090;49.270;8.696;2023-09-19T12:17:35;21.90;99.90
8095;DHT22;4090;49.270;8.696;2023-09-19T12:20:17;22.10;99.90
8095;DHT22;4090;49.270;8.696;2023-09-19T12:22:59;22.10;99.90
8095;DHT22;4090;49.270;8.696;2023-09-19T12:25:42;22.10;99.90
8095;DHT22;4090;49.270;8.696;2023-09-19T12:28:27;22.10;99.90
8095;DHT22;4090;49.270;8.696;2023-09-19T12:31:11;22.00;99.90
8095;DHT22;4090;49.270;8.696;2023-09-19T12:33:54;22.20;99.90
8095;DHT22;4090;49.270;8.696;2023-09-19T12:36:36;22.30;99.90
8095;DHT22;4090;49.270;8.696;2023-09-19T12:39:23;22.40;99.90
8095;DHT22;4090;49.270;8.696;2023-09-19T12:42:07;22.40;99.90
8095;DHT22;4090;49.270;8.696;2023-09-19T12:44:51;22.50;99.90
8095;DHT22;4090;49.270;8.696;2023-09-19T12:47:35;22.40;99.90
8095;DHT22;4090;49.270;8.696;2023-09-19T12:50:19;22.50;99.90
8095;DHT22;4090;49.270;8.696;2023-09-19T12:53:24;22.60;99.90
8095;DHT22;4090;49.270;8.696;2023-09-19T12:56:10;22.70;99.90
8095;DHT22;4090;49.270;8.696;2023-09-19T12:58:55;22.70;99.90
8095;DHT22;4090;49.270;8.696;2023-09-19T13:01:39;22.70;99.90
8095;DHT22;4090;49.270;8.696;2023-09-19T13:04:25;22.80;99.90
8095;DHT22;4090;49.270;8.696;2023-09-19T13:07:42;23.00;99.90
8095;DHT22;4090;49.270;8.696;2023-09-19T13:10:26;23.00;99.90
8095;DHT22;4090;49.270;8.696;2023-09-19T13:13:23;22.90;99.90
8095;DHT22;4090;49.270;8.696;2023-09-19T13:16:08;22.90;99.90
8095;DHT22;4090;49.270;8.696;2023-09-19T13:18:51;23.00;99.90
8095;DHT22;4090;49.270;8.696;2023-09-19T13:21:34;22.90;99.90
8095;DHT22;4090;49.270;8.696;2023-09-19T13:24:25;23.00;99.90
8095;DHT22;4090;49.270;8.696;2023-09-19T13:27:08;22.90;99.90
8095;DHT22;4090;49.270;8.696;2023-09-19T13:29:50;23.00;99.90
8095;DHT22;4090;49.270;8.696;2023-09-19T13:32:32;23.10;99.90
8095;DHT22;4090;49.270;8.696;2023-09-19T13:35:15;23.00;99.90
8095;DHT22;4090;49.270;8.696;2023-09-19T13:37:57;22.90;99.90
8095;DHT22;4090;49.270;8.696;2023-09-19T13:40:40;23.00;99.90
8095;DHT22;4090;49.270;8.696;2023-09-19T13:43:23;23.10;99.90
8095;DHT22;4090;49.270;8.696;2023-09-19T13:46:05;23.00;99.90
8095;DHT22;4090;49.270;8.696;2023-09-19T13:48:52;23.20;99.90
8095;DHT22;4090;49.270;8.696;2023-09-19T13:51:35;23.10;99.90
8095;DHT22;4090;49.270;8.696;2023-09-19T13:54:17;23.10;99.90
8095;DHT22;4090;49.270;8.696;2023-09-19T13:57:00;23.00;99.90
8095;DHT22;4090;49.270;8.696;2023-09-19T13:59:42;23.00;99.90
8095;DHT22;4090;49.270;8.696;2023-09-19T14:02:24;23.00;99.90
8095;DHT22;4090;49.270;8.696;2023-09-19T14:05:06;23.10;99.90
8095;DHT22;4090;49.270;8.696;2023-09-19T14:07:49;23.10;99.90
8095;DHT22;4090;49.270;8.696;2023-09-19T14:10:31;23.10;99.90
8095;DHT22;4090;49.270;8.696;2023-09-19T14:13:14;23.10;99.90
8095;DHT22;4090;49.270;8.696;2023-09-19T14:15:56;23.00;99.90
8095;DHT22;4090;49.270;8.696;2023-09-19T14:18:38;23.10;99.90
8095;DHT22;4090;49.270;8.696;2023-09-19T14:21:20;23.20;99.90
8095;DHT22;4090;49.270;8.696;2023-09-19T14:24:03;23.20;99.90
8095;DHT22;4090;49.270;8.696;2023-09-19T14:26:46;23.10;99.90
8095;DHT22;4090;49.270;8.696;2023-09-19T14:29:31;23.20;99.90
8095;DHT22;4090;49.270;8.696;2023-09-19T14:32:13;23.20;99.90
8095;DHT22;4090;49.270;8.696;2023-09-19T14:34:55;23.30;99.90
8095;DHT22;4090;49.270;8.696;2023-09-19T14:37:37;23.20;99.90
8095;DHT22;4090;49.270;8.696;2023-09-19T14:40:20;23.30;99.90
8095;DHT22;4090;49.270;8.696;2023-09-19T14:43:05;23.30;99.90
8095;DHT22;4090;49.270;8.696;2023-09-19T14:45:54;23.20;99.90
8095;DHT22;4090;49.270;8.696;2023-09-19T14:48:37;23.30;99.90
8095;DHT22;4090;49.270;8.696;2023-09-19T14:51:19;23.30;99.90
8095;DHT22;4090;49.270;8.696;2023-09-19T14:54:01;23.30;99.90
8095;DHT22;4090;49.270;8.696;2023-09-19T14:56:43;23.30;99.90
8095;DHT22;4090;49.270;8.696;2023-09-19T14:59:25;23.30;99.90
8095;DHT22;4090;49.270;8.696;2023-09-19T15:02:09;23.30;99.90
8095;DHT22;4090;49.270;8.696;2023-09-19T15:04:51;23.20;99.90
8095;DHT22;4090;49.270;8.696;2023-09-19T15:07:33;23.30;99.90
8095;DHT22;4090;49.270;8.696;2023-09-19T15:10:17;23.40;99.90
8095;DHT22;4090;49.270;8.696;2023-09-19T15:12:59;23.20;99.90
8095;DHT22;4090;49.270;8.696;2023-09-19T15:15:41;23.40;99.90
8095;DHT22;4090;49.270;8.696;2023-09-19T15:18:25;23.30;99.90
8095;DHT22;4090;49.270;8.696;2023-09-19T15:21:09;23.20;99.90
8095;DHT22;4090;49.270;8.696;2023-09-19T15:23:51;23.30;99.90
8095;DHT22;4090;49.270;8.696;2023-09-19T15:26:33;23.30;99.90
8095;DHT22;4090;49.270;8.696;2023-09-19T15:29:14;23.20;99.90
8095;DHT22;4090;49.270;8.696;2023-09-19T15:31:56;23.20;99.90
8095;DHT22;4090;49.270;8.696;2023-09-19T15:34:44;23.30;99.90
8095;DHT22;4090;49.270;8.696;2023-09-19T15:37:26;23.20;99.90
8095;DHT22;4090;49.270;8.696;2023-09-19T15:40:08;23.30;99.90
8095;DHT22;4090;49.270;8.696;2023-09-19T15:42:54;23.20;99.90
8095;DHT22;4090;49.270;8.696;2023-09-19T15:45:37;23.10;99.90
8095;DHT22;4090;49.270;8.696;2023-09-19T15:48:19;23.20;99.90
8095;DHT22;4090;49.270;8.696;2023-09-19T15:51:04;23.20;99.90
8095;DHT22;4090;49.270;8.696;2023-09-19T15:53:47;23.10;99.90
8095;DHT22;4090;49.270;8.696;2023-09-19T15:56:30;23.10;99.90
8095;DHT22;4090;49.270;8.696;2023-09-19T15:59:12;23.10;99.90
8095;DHT22;4090;49.270;8.696;2023-09-19T16:01:54;23.10;99.90
8095;DHT22;4090;49.270;8.696;2023-09-19T16:04:36;23.00;99.90
8095;DHT22;4090;49.270;8.696;2023-09-19T16:07:20;23.00;99.90
8095;DHT22;4090;49.270;8.696;2023-09-19T16:10:02;23.00;99.90
8095;DHT22;4090;49.270;8.696;2023-09-19T16:12:44;23.00;99.90
8095;DHT22;4090;49.270;8.696;2023-09-19T16:15:26;23.00;99.90
8095;DHT22;4090;49.270;8.696;2023-09-19T16:18:09;23.00;99.90
8095;DHT22;4090;49.270;8.696;2023-09-19T16:20:51;22.90;99.90
8095;DHT22;4090;49.270;8.696;2023-09-19T16:23:34;22.90;99.90
8095;DHT22;4090;49.270;8.696;2023-09-19T16:26:17;22.90;99.90
8095;DHT22;4090;49.270;8.696;2023-09-19T16:29:01;22.90;99.90
8095;DHT22;4090;49.270;8.696;2023-09-19T16:31:43;22.90;99.90
8095;DHT22;4090;49.270;8.696;2023-09-19T16:34:25;22.80;99.90
8095;DHT22;4090;49.270;8.696;2023-09-19T16:37:07;22.80;99.90
8095;DHT22;4090;49.270;8.696;2023-09-19T16:39:51;22.80;99.90
8095;DHT22;4090;49.270;8.696;2023-09-19T16:42:33;22.80;99.90
8095;DHT22;4090;49.270;8.696;2023-09-19T16:45:14;22.70;99.90
8095;DHT22;4090;49.270;8.696;2023-09-19T16:47:56;22.80;99.90
8095;DHT22;4090;49.270;8.696;2023-09-19T16:50:38;22.70;99.90
8095;DHT22;4090;49.270;8.696;2023-09-19T16:53:20;22.80;99.90
8095;DHT22;4090;49.270;8.696;2023-09-19T16:56:05;22.80;99.90
8095;DHT22;4090;49.270;8.696;2023-09-19T16:58:50;22.80;99.90
8095;DHT22;4090;49.270;8.696;2023-09-19T17:01:32;22.70;99.90
8095;DHT22;4090;49.270;8.696;2023-09-19T17:04:15;22.80;99.90
8095;DHT22;4090;49.270;8.696;2023-09-19T17:06:57;22.70;99.90
8095;DHT22;4090;49.270;8.696;2023-09-19T17:09:39;22.70;99.90
8095;DHT22;4090;49.270;8.696;2023-09-19T17:12:23;22.70;99.90
8095;DHT22;4090;49.270;8.696;2023-09-19T17:15:06;22.70;99.90
8095;DHT22;4090;49.270;8.696;2023-09-19T17:17:48;22.70;99.90
8095;DHT22;4090;49.270;8.696;2023-09-19T17:20:30;22.50;99.90
8095;DHT22;4090;49.270;8.696;2023-09-19T17:23:11;22.50;99.90
8095;DHT22;4090;49.270;8.696;2023-09-19T17:26:01;22.50;99.90
8095;DHT22;4090;49.270;8.696;2023-09-19T17:28:45;22.60;99.90
8095;DHT22;4090;49.270;8.696;2023-09-19T17:31:27;22.50;99.90
8095;DHT22;4090;49.270;8.696;2023-09-19T17:34:09;22.50;99.90
8095;DHT22;4090;49.270;8.696;2023-09-19T17:36:51;22.50;99.90
8095;DHT22;4090;49.270;8.696;2023-09-19T17:39:35;22.50;99.90
8095;DHT22;4090;49.270;8.696;2023-09-19T17:42:17;22.40;99.90
8095;DHT22;4090;49.270;8.696;2023-09-19T17:45:00;22.40;99.90
8095;DHT22;4090;49.270;8.696;2023-09-19T17:47:43;22.40;99.90
8095;DHT22;4090;49.270;8.696;2023-09-19T17:50:25;22.30;99.90
8095;DHT22;4090;49.270;8.696;2023-09-19T17:53:07;22.40;99.90
8095;DHT22;4090;49.270;8.696;2023-09-19T17:55:51;22.30;99.90
8095;DHT22;4090;49.270;8.696;2023-09-19T17:58:33;22.20;99.90